createdAt,value
2022-07-30T00:02:00.108Z,3.55
2022-07-30T00:05:09.838Z,4.05
2022-07-30T00:08:10.530Z,3.72
2022-07-30T00:11:19.625Z,4.00
2022-07-30T00:14:22.501Z,3.75
2022-07-30T00:17:31.261Z,3.25
2022-07-30T00:20:47.049Z,3.60
2022-07-30T00:24:01.441Z,3.38
2022-07-30T00:27:06.466Z,3.33
2022-07-30T00:30:25.503Z,3.40
2022-07-30T00:33:27.787Z,3.40
2022-07-30T00:36:43.971Z,3.53
2022-07-30T00:39:45.307Z,3.85
2022-07-30T00:46:15.435Z,3.45
2022-07-30T00:49:19.710Z,3.55
2022-07-30T00:52:31.882Z,3.72
2022-07-30T00:55:33.507Z,4.57
2022-07-30T00:58:45.301Z,4.05
2022-07-30T01:01:51.810Z,4.07
2022-07-30T01:05:08.139Z,4.05
2022-07-30T01:08:12.353Z,3.92
2022-07-30T01:11:21.362Z,4.38
2022-07-30T01:14:26.334Z,3.30
2022-07-30T01:17:34.144Z,3.58
2022-07-30T01:20:42.314Z,3.70
2022-07-30T01:23:57.034Z,5.78
2022-07-30T01:27:02.930Z,3.58
2022-07-30T01:30:16.917Z,3.75
2022-07-30T01:33:24.721Z,4.28
2022-07-30T01:36:49.572Z,4.03
2022-07-30T01:39:58.124Z,4.57
2022-07-30T01:43:14.420Z,3.70
2022-07-30T01:46:20.183Z,4.40
2022-07-30T01:49:33.156Z,4.40
2022-07-30T01:52:52.386Z,4.57
2022-07-30T01:56:02.208Z,4.35
2022-07-30T01:59:07.298Z,4.13
2022-07-30T02:02:20.722Z,3.90
2022-07-30T02:05:34.324Z,3.92
2022-07-30T02:08:53.917Z,3.75
2022-07-30T02:12:27.958Z,4.53
2022-07-30T02:15:50.277Z,4.57
2022-07-30T02:19:09.915Z,4.22
2022-07-30T02:22:28.616Z,4.55
2022-07-30T02:25:42.798Z,4.00
2022-07-30T02:32:22.979Z,4.18
2022-07-30T02:35:37.814Z,3.75
2022-07-30T02:38:47.918Z,3.88
2022-07-30T02:42:05.095Z,4.45
2022-07-30T02:45:08.259Z,3.92
2022-07-30T02:48:34.513Z,3.95
2022-07-30T02:51:46.080Z,3.40
2022-07-30T02:54:54.724Z,3.45
2022-07-30T02:57:59.044Z,4.15
2022-07-30T03:01:04.318Z,3.40
2022-07-30T03:04:13.877Z,3.25
2022-07-30T03:07:20.822Z,4.00
2022-07-30T03:10:31.650Z,3.65
2022-07-30T03:13:37.086Z,3.75
2022-07-30T03:16:54.670Z,3.60
2022-07-30T03:20:01.687Z,3.72
2022-07-30T03:23:34.150Z,3.60
2022-07-30T03:30:32.133Z,3.50
2022-07-30T03:53:16.298Z,4.28
2022-07-30T03:56:31.896Z,4.35
2022-07-30T04:03:16.938Z,4.03
2022-07-30T04:06:22.210Z,3.83
2022-07-30T04:09:50.646Z,4.28
2022-07-30T04:13:12.626Z,4.05
2022-07-30T04:16:39.337Z,3.63
2022-07-30T04:20:13.250Z,3.33
2022-07-30T04:23:19.326Z,3.55
2022-07-30T04:26:40.914Z,4.13
2022-07-30T04:29:52.759Z,7.53
2022-07-30T04:33:15.714Z,3.42
2022-07-30T04:36:28.229Z,3.90
2022-07-30T04:39:31.568Z,3.50
2022-07-30T04:42:51.529Z,3.88
2022-07-30T04:45:56.343Z,3.80
2022-07-30T04:49:25.719Z,3.40
2022-07-30T04:56:00.900Z,3.28
2022-07-30T04:59:19.263Z,3.20
2022-07-30T05:02:23.566Z,2.92
2022-07-30T05:05:40.186Z,3.50
2022-07-30T05:08:57.835Z,3.50
2022-07-30T05:12:28.338Z,3.00
2022-07-30T05:16:34.128Z,3.63
2022-07-30T05:19:40.626Z,3.50
2022-07-30T05:22:57.936Z,3.42
2022-07-30T05:30:00.532Z,3.72
2022-07-30T05:33:20.439Z,3.08
2022-07-30T05:40:50.246Z,3.25
2022-07-30T05:44:05.556Z,3.40
2022-07-30T05:47:08.948Z,3.50
2022-07-30T05:50:26.043Z,2.90
2022-07-30T05:53:39.876Z,3.35
2022-07-30T05:56:54.340Z,3.22
2022-07-30T06:00:08.072Z,3.25
2022-07-30T06:03:16.611Z,3.22
2022-07-30T06:06:27.311Z,2.78
2022-07-30T06:09:36.697Z,2.73
2022-07-30T06:16:24.399Z,2.95
2022-07-30T06:19:50.194Z,2.85
2022-07-30T06:23:51.489Z,2.42
2022-07-30T06:46:03.437Z,3.22
2022-07-30T07:30:26.395Z,2.47
2022-07-30T08:40:26.637Z,2.53
2022-07-30T08:52:16.670Z,3.67
2022-07-30T08:59:03.946Z,2.50
2022-07-30T09:02:31.059Z,2.35
2022-07-30T09:05:31.232Z,2.42
2022-07-30T09:12:04.181Z,2.55
2022-07-30T09:15:18.788Z,2.72
2022-07-30T09:18:48.305Z,2.88
2022-07-30T10:19:39.943Z,3.20
2022-07-30T16:23:14.924Z,2.80
2022-07-30T19:58:29.689Z,3.83
2022-07-30T20:10:41.972Z,4.50
2022-07-30T21:06:22.678Z,7.93
2022-07-30T21:09:52.029Z,7.97
2022-07-30T21:13:32.430Z,8.80
2022-07-30T21:16:55.850Z,9.93
2022-07-30T21:20:27.854Z,9.50
2022-07-30T21:23:41.340Z,13.73
2022-07-30T21:30:24.270Z,14.18
2022-07-30T21:33:37.287Z,18.75
2022-07-30T21:36:42.254Z,20.25
2022-07-30T21:39:58.762Z,18.83
2022-07-30T21:43:03.411Z,22.05
2022-07-30T21:46:24.923Z,23.00
2022-07-30T21:49:56.845Z,25.88
2022-07-30T21:57:01.290Z,24.63
2022-07-30T22:01:16.345Z,27.85
2022-07-30T22:05:23.906Z,28.23
2022-07-30T22:09:45.270Z,27.08
2022-07-30T22:13:22.361Z,25.05
2022-07-30T22:19:57.746Z,21.35
2022-07-30T22:23:09.847Z,22.15
2022-07-30T22:26:09.953Z,21.17
2022-07-30T22:29:19.221Z,20.63
2022-07-30T22:32:20.339Z,21.10
2022-07-30T22:36:06.138Z,19.38
2022-07-30T22:39:31.947Z,17.88
2022-07-30T22:46:14.925Z,14.02
2022-07-30T22:50:17.368Z,14.10
2022-07-30T22:54:10.639Z,14.90
2022-07-30T23:00:27.965Z,15.55
2022-07-30T23:03:45.346Z,15.40
2022-07-30T23:06:53.362Z,15.35
2022-07-30T23:10:04.889Z,12.68
2022-07-30T23:13:24.225Z,16.25
2022-07-30T23:16:37.023Z,17.08
2022-07-30T23:23:02.979Z,16.77
2022-07-30T23:26:05.298Z,14.48
2022-07-30T23:29:14.667Z,15.27
2022-07-30T23:32:20.464Z,15.45
2022-07-30T23:35:28.204Z,16.23
2022-07-30T23:38:28.996Z,18.05
2022-07-30T23:41:48.283Z,16.33
2022-07-30T23:44:50.851Z,15.07
2022-07-30T23:48:02.499Z,17.25
2022-07-30T23:58:00.544Z,16.88
